Al Kazimiyah, Iraq
Current Conditions -  °F | °C
As of 1:00 PM on Wednesday 26 Nov 2014 (Local Time) from ORBI Reporting Station
Few Clouds Few Clouds  
Wind Chill: 64°   Ceiling: Unl
Heat Index: 64°   Visibility: 6mi
Dew Point: 52°   Wind: 6mph
Humidity: 64%   Direction: 210°SSW
Pressure: 30.03"   Gusts: NA
Location:  33.31°N, 44.19°E
Report Text: ORBI 261000Z 21005KT 160V260 9999 FEW040 18/11 Q1017 NOSIG
Loading
Personal Weather Stations






























Interactive Weather Map New forecast layout! Learn more

10-Day Weather Forecast

Advertisements
Track Severe Weather on mobile